Pagrindinis puslapis
METAR-TAF:

METAR-TAF

Oro uostai :

Pastas, Kolumbija

platuma: 01-25N, ilguma: 077-16W, Aukštis: 1826 m

Dabartinis oras

Ataskaita buvo paskelbta 4 valandos ir 24 minutes, ne 23:00 UTC
Vėjas 10 kt iš Rytų/Pietryčių
Temperatūra 23°C
Drėgmė 47%
Slėgis 1016 hPa
Matomumas 10 km arba daugiau
Mažai debesys ne aukštis 2800 ft

METAR: SKPS 162300Z 12010KT 9999 FEW028 23/11 A2999

Laikas: 22:24 (03:24 UTC)


TAF: trūkstamas

Orai ataskaitas ir orų prognozės (METAR, TAF).

turimą stotys yra geltonos ir raudonos taškus žemėlapyje.

Perkelti pele per norėdami pamatyti stoties vardą.

Tada spustelėkite, norėdami matyti oro stebėjimo ir prognozės.

Norėdami pakeisti žemėlapį: spustelėkite ant žalios mygtukų su juodo kryžiaus žemyn,; žalią mygtuką su brūkšneliu, jei norite nutolinti; arba žalių rodyklių gretimoms žemėlapius.


METAR-TAF: